Time;durP1;ratioP1;P1;durP2;ratioP2;P2;SDS_P1;SDS_P2;PMS_P1;PMS_P2;Temp;Humidity;BMP_temperature;BMP_pressure;BME280_temperature;BME280_humidity;BME280_pressure;Samples;Min_cycle;Max_cycle;Signal;HPM_P1;HPM_P2
2023/05/25 00:00:57;;;;;;;49.00;28.43;;;;;;;12.35;88.29;100552.03;4258764;28;20344;-63
2023/05/25 00:03:29;;;;;;;49.33;26.93;;;;;;;12.36;87.96;100543.72;4254845;28;21589;-64
2023/05/25 00:05:57;;;;;;;49.20;26.73;;;;;;;12.37;87.92;100544.59;4255072;28;20246;-64
2023/05/25 00:08:24;;;;;;;44.47;26.10;;;;;;;12.35;88.10;100543.88;4252623;28;20242;-64
2023/05/25 00:10:50;;;;;;;55.83;28.30;;;;;;;12.32;88.48;100545.06;4252746;28;23328;-64
2023/05/25 00:13:17;;;;;;;55.07;27.47;;;;;;;12.30;88.31;100544.34;4251682;28;25120;-64
2023/05/25 00:15:43;;;;;;;54.90;27.87;;;;;;;12.32;88.10;100545.06;4258317;28;20227;-64
2023/05/25 00:18:10;;;;;;;52.73;28.10;;;;;;;12.30;87.93;100547.06;4248882;28;21461;-64
2023/05/25 00:20:38;;;;;;;49.23;26.67;;;;;;;12.40;87.76;100546.13;4264274;28;20321;-66
2023/05/25 00:23:04;;;;;;;52.13;27.57;;;;;;;12.38;87.85;100545.44;4273528;28;20226;-63
2023/05/25 00:25:31;;;;;;;53.87;27.17;;;;;;;12.45;87.93;100557.38;4258248;28;20231;-66
2023/05/25 00:27:58;;;;;;;52.03;28.13;;;;;;;12.39;87.86;100552.56;4258555;28;20234;-64
2023/05/25 00:30:25;;;;;;;47.37;25.07;;;;;;;12.53;87.63;100554.72;4248811;28;20235;-64
2023/05/25 00:32:52;;;;;;;63.37;29.03;;;;;;;12.49;88.07;100550.63;4258269;28;20269;-66
2023/05/25 00:35:19;;;;;;;56.17;27.73;;;;;;;12.59;87.27;100553.25;4253867;28;20346;-65
2023/05/25 00:37:46;;;;;;;56.17;28.33;;;;;;;12.49;87.73;100548.75;4239326;28;23470;-64
2023/05/25 00:40:15;;;;;;;62.87;28.63;;;;;;;12.47;88.14;100550.75;4258334;28;20230;-64
2023/05/25 00:42:42;;;;;;;60.30;29.40;;;;;;;12.49;88.09;100556.91;4256378;28;20307;-66
2023/05/25 00:45:09;;;;;;;62.97;30.90;;;;;;;12.43;88.49;100559.38;4255001;28;20236;-64
2023/05/25 00:47:36;;;;;;;64.63;29.50;;;;;;;12.38;88.83;100551.72;4262688;28;20241;-65
2023/05/25 00:50:07;;;;;;;62.77;29.67;;;;;;;12.47;88.41;100555.34;4263532;28;20234;-64
2023/05/25 00:52:34;;;;;;;67.97;30.17;;;;;;;12.44;88.79;100553.81;4256537;28;21847;-65
2023/05/25 00:55:01;;;;;;;66.30;31.07;;;;;;;12.47;88.75;100553.47;4249377;28;21147;-67
2023/05/25 00:57:32;;;;;;;72.00;31.00;;;;;;;12.44;88.98;100563.81;4269267;28;21872;-63
2023/05/25 01:00:01;;;;;;;69.70;32.23;;;;;;;12.38;89.22;100557.16;4240944;28;23420;-64
2023/05/25 01:02:28;;;;;;;75.53;32.93;;;;;;;12.34;89.57;100569.31;4253653;28;20292;-63
2023/05/25 01:04:58;;;;;;;76.87;33.13;;;;;;;12.35;89.76;100557.47;4243964;28;20231;-65
2023/05/25 01:07:25;;;;;;;77.60;33.47;;;;;;;12.56;89.28;100569.84;4243606;28;20462;-64
2023/05/25 01:10:05;;;;;;;82.10;35.00;;;;;;;12.42;89.62;100563.13;4238545;28;20247;-64
2023/05/25 01:12:36;;;;;;;79.97;34.90;;;;;;;12.36;89.85;100565.44;4249945;28;20300;-64
2023/05/25 01:15:04;;;;;;;82.33;36.27;;;;;;;12.36;90.12;100570.88;4256991;28;20594;-67
2023/05/25 01:17:31;;;;;;;97.37;36.93;;;;;;;12.36;90.29;100556.44;4254660;28;20297;-64
2023/05/25 01:19:58;;;;;;;99.40;37.83;;;;;;;12.38;90.35;100567.16;4257569;28;23809;-65
2023/05/25 01:22:47;;;;;;;109.00;39.57;;;;;;;12.28;90.62;100570.78;4259051;28;20681;-63
2023/05/25 01:25:21;;;;;;;103.23;39.10;;;;;;;12.28;90.92;100584.34;4256349;28;20233;-65
2023/05/25 01:27:58;;;;;;;107.50;39.10;;;;;;;12.29;90.91;100577.09;4243267;28;20235;-64
2023/05/25 01:30:25;;;;;;;105.43;38.10;;;;;;;12.40;90.46;100576.00;4243224;28;20323;-64
2023/05/25 01:32:53;;;;;;;102.17;38.77;;;;;;;12.38;90.42;100573.44;4259387;28;22826;-64
2023/05/25 01:35:21;;;;;;;109.17;40.60;;;;;;;12.38;90.74;100575.28;4240611;28;20301;-63
2023/05/25 01:37:48;;;;;;;100.93;38.87;;;;;;;12.44;90.59;100571.94;4237352;28;20238;-62
2023/05/25 01:40:15;;;;;;;104.23;38.90;;;;;;;12.43;90.69;100562.09;4259083;28;20226;-64
2023/05/25 01:42:42;;;;;;;95.87;38.83;;;;;;;12.43;90.83;100562.97;4251312;28;20238;-65
2023/05/25 01:45:10;;;;;;;102.63;37.63;;;;;;;12.39;90.85;100575.13;4235739;28;20231;-65
2023/05/25 01:47:45;;;;;;;93.40;38.30;;;;;;;12.40;90.86;100563.25;4257797;28;20277;-65
2023/05/25 01:50:26;;;;;;;90.20;38.70;;;;;;;12.32;91.17;100566.78;4256435;28;20230;-62
2023/05/25 01:52:59;;;;;;;94.73;39.73;;;;;;;12.35;91.34;100568.31;4248846;28;20292;-64
2023/05/25 01:55:27;;;;;;;91.30;39.27;;;;;;;12.40;90.91;100562.44;4251490;28;20321;-67
2023/05/25 01:57:56;;;;;;;88.23;38.47;;;;;;;12.38;91.05;100557.16;4243397;28;20286;-63
2023/05/25 02:00:30;;;;;;;87.67;37.67;;;;;;;12.47;90.48;100567.06;4243644;28;21763;-64
2023/05/25 02:02:57;;;;;;;80.87;37.00;;;;;;;12.45;90.64;100563.66;4250289;28;21629;-65
2023/05/25 02:05:25;;;;;;;85.90;39.67;;;;;;;12.41;90.67;100556.00;4251941;28;21135;-64
2023/05/25 02:07:51;;;;;;;93.80;39.17;;;;;;;12.46;90.69;100557.19;4254813;28;20234;-65
2023/05/25 02:10:18;;;;;;;89.63;37.47;;;;;;;12.43;90.98;100559.38;4255245;28;20230;-63
2023/05/25 02:12:45;;;;;;;90.07;38.30;;;;;;;12.48;90.65;100557.06;4262285;28;20303;-63
2023/05/25 02:15:12;;;;;;;81.60;36.80;;;;;;;12.60;90.38;100560.38;4231620;28;20231;-65
2023/05/25 02:17:38;;;;;;;75.17;36.53;;;;;;;12.61;89.79;100562.09;4252041;28;20285;-65
2023/05/25 02:20:07;;;;;;;91.77;37.57;;;;;;;12.53;90.20;100557.44;4260635;28;20415;-65
2023/05/25 02:22:33;;;;;;;74.67;36.97;;;;;;;12.51;90.29;100565.75;4248455;28;20424;-65
2023/05/25 02:25:00;;;;;;;76.30;34.97;;;;;;;12.54;90.09;100559.16;4256763;28;20332;-64
2023/05/25 02:27:27;;;;;;;73.67;35.07;;;;;;;12.52;90.13;100567.47;4250671;28;21746;-64
2023/05/25 02:29:53;;;;;;;74.73;35.37;;;;;;;12.60;89.95;100572.09;4255988;28;20246;-64
2023/05/25 02:32:20;;;;;;;72.37;35.70;;;;;;;12.47;90.22;100568.94;4249569;28;21104;-61
2023/05/25 02:34:46;;;;;;;75.17;36.73;;;;;;;12.39;90.93;100563.44;4258724;28;20499;-63
2023/05/25 02:37:13;;;;;;;77.00;34.90;;;;;;;12.52;90.19;100572.88;4247740;28;21467;-62
2023/05/25 02:39:40;;;;;;;77.27;36.50;;;;;;;12.41;90.57;100566.84;4247079;28;20392;-65
2023/05/25 02:42:06;;;;;;;74.33;33.63;;;;;;;12.45;90.54;100570.94;4254950;28;25638;-64
2023/05/25 02:44:33;;;;;;;76.63;34.20;;;;;;;12.46;90.41;100570.78;4251472;28;20227;-63
2023/05/25 02:46:59;;;;;;;69.37;34.47;;;;;;;12.44;90.65;100574.66;4236970;28;20230;-65
2023/05/25 02:49:26;;;;;;;78.60;35.90;;;;;;;12.41;90.53;100586.69;4248750;28;20625;-65
2023/05/25 02:51:53;;;;;;;68.97;35.30;;;;;;;12.44;90.70;100577.38;4260301;28;20296;-65
2023/05/25 02:54:19;;;;;;;69.07;33.63;;;;;;;12.56;90.15;100573.44;4252543;28;21637;-65
2023/05/25 02:56:46;;;;;;;68.87;33.90;;;;;;;12.48;90.31;100573.34;4233183;28;20257;-65
2023/05/25 02:59:12;;;;;;;72.23;35.27;;;;;;;12.49;90.18;100572.34;4244015;28;20239;-64
2023/05/25 03:01:39;;;;;;;75.70;33.40;;;;;;;12.57;89.98;100576.97;4253091;28;21142;-63
2023/05/25 03:04:06;;;;;;;71.30;34.40;;;;;;;12.51;89.90;100582.03;4242533;28;22181;-64
2023/05/25 03:06:35;;;;;;;76.03;36.43;;;;;;;12.44;90.33;100574.66;4248697;28;21672;-64
2023/05/25 03:09:03;;;;;;;76.70;36.67;;;;;;;12.36;90.69;100573.59;4242114;28;20303;-62
2023/05/25 03:11:30;;;;;;;80.27;37.13;;;;;;;12.44;90.33;100574.66;4243090;28;23758;-63
2023/05/25 03:13:57;;;;;;;80.70;35.97;;;;;;;12.45;90.26;100587.22;4255362;28;20339;-65
2023/05/25 03:16:24;;;;;;;78.57;37.63;;;;;;;12.36;91.04;100576.28;4261334;28;20234;-65
2023/05/25 03:18:51;;;;;;;82.13;36.43;;;;;;;12.45;90.53;100590.81;4252642;28;21164;-63
2023/05/25 03:21:18;;;;;;;81.40;37.33;;;;;;;12.47;90.25;100596.09;4257553;28;25547;-66
2023/05/25 03:23:44;;;;;;;71.03;34.73;;;;;;;12.43;90.63;100594.66;4255012;28;21438;-65
2023/05/25 03:26:11;;;;;;;79.30;36.13;;;;;;;12.41;90.49;100600.25;4239087;28;20305;-65
2023/05/25 03:28:37;;;;;;;76.33;37.90;;;;;;;12.35;90.23;100607.16;4256632;28;20311;-63
2023/05/25 03:31:04;;;;;;;75.87;36.63;;;;;;;12.40;90.43;100603.97;4268608;28;20237;-64
2023/05/25 03:33:32;;;;;;;73.90;36.93;;;;;;;12.57;89.75;100613.16;4262228;28;20293;-64
2023/05/25 03:35:58;;;;;;;78.93;37.87;;;;;;;12.46;89.90;100611.50;4253385;28;20296;-63
2023/05/25 03:38:25;;;;;;;76.13;36.50;;;;;;;12.43;90.13;100608.25;4250692;28;21540;-65
2023/05/25 03:40:51;;;;;;;78.50;36.47;;;;;;;12.51;90.19;100617.34;4261804;28;21558;-65
2023/05/25 03:43:18;;;;;;;71.90;35.23;;;;;;;12.48;90.35;100614.94;4254966;28;21547;-66
2023/05/25 03:45:45;;;;;;;72.80;33.97;;;;;;;12.67;89.88;100615.78;4270469;28;20238;-65
2023/05/25 03:48:12;;;;;;;68.83;34.27;;;;;;;12.70;89.07;100607.31;4250592;28;23754;-66
2023/05/25 03:50:39;;;;;;;75.17;33.37;;;;;;;12.57;89.77;100607.72;4248972;28;20857;-64
2023/05/25 03:53:06;;;;;;;71.80;34.50;;;;;;;12.62;89.98;100601.78;4261553;28;20614;-64
2023/05/25 03:55:33;;;;;;;66.23;33.77;;;;;;;12.61;89.32;100595.53;4261547;28;22106;-64
2023/05/25 03:57:59;;;;;;;69.53;33.10;;;;;;;12.67;89.25;100605.75;4256795;28;20235;-65
2023/05/25 04:00:26;;;;;;;69.30;32.97;;;;;;;12.81;89.04;100604.34;4257566;28;20452;-65
2023/05/25 04:02:53;;;;;;;70.13;32.97;;;;;;;12.64;88.82;100608.81;4266866;28;20342;-65
2023/05/25 04:05:20;;;;;;;62.40;32.23;;;;;;;12.73;88.60;100608.84;4275671;28;21731;-64
2023/05/25 04:07:46;;;;;;;64.33;31.90;;;;;;;12.89;88.11;100613.56;4263495;28;20237;-64
2023/05/25 04:10:13;;;;;;;65.03;31.87;;;;;;;12.70;89.10;100609.19;4258568;28;25049;-66
2023/05/25 04:12:39;;;;;;;67.40;31.43;;;;;;;12.67;88.90;100611.19;4252047;28;20293;-68
2023/05/25 04:15:08;;;;;;;62.80;32.07;;;;;;;12.79;88.38;100613.66;4266302;28;20237;-63
2023/05/25 04:17:35;;;;;;;61.03;31.50;;;;;;;12.71;88.42;100617.16;4246438;28;22443;-64
2023/05/25 04:20:07;;;;;;;67.40;31.43;;;;;;;12.80;88.38;100615.38;4250144;28;20302;-65
2023/05/25 04:22:37;;;;;;;61.33;31.97;;;;;;;12.66;88.71;100614.06;4261291;28;21815;-66
2023/05/25 04:25:05;;;;;;;63.20;31.57;;;;;;;12.84;88.40;100624.91;4236698;28;20311;-66
2023/05/25 04:27:32;;;;;;;65.60;31.17;;;;;;;12.94;87.80;100628.41;4262880;28;20226;-65
2023/05/25 04:29:59;;;;;;;62.83;31.03;;;;;;;13.00;87.19;100627.75;4240246;28;20406;-66
2023/05/25 04:32:28;;;;;;;63.13;31.00;;;;;;;12.95;87.83;100627.34;4259321;28;20234;-64
2023/05/25 04:34:55;;;;;;;62.93;32.87;;;;;;;12.89;87.82;100629.88;4264510;28;20241;-65
2023/05/25 04:37:26;;;;;;;60.87;31.43;;;;;;;13.07;87.77;100621.69;4269459;28;20243;-65
2023/05/25 04:39:52;;;;;;;63.57;31.17;;;;;;;13.03;87.45;100626.59;4250302;28;20471;-65
2023/05/25 04:42:22;;;;;;;59.00;31.20;;;;;;;12.94;87.39;100632.97;4251289;28;23455;-63
2023/05/25 04:44:54;;;;;;;66.90;31.00;;;;;;;12.88;87.88;100629.00;4267560;28;20234;-66
2023/05/25 04:47:21;;;;;;;56.30;31.00;;;;;;;13.03;87.21;100623.88;4245690;28;22603;-64
2023/05/25 04:49:48;;;;;;;59.37;31.23;;;;;;;13.00;87.11;100632.31;4241959;28;21235;-64
2023/05/25 04:52:14;;;;;;;59.27;29.33;;;;;;;12.95;87.50;100629.22;4249414;28;20506;-65
2023/05/25 04:54:42;;;;;;;63.43;31.00;;;;;;;12.99;87.43;100636.06;4249062;28;20233;-65
2023/05/25 04:57:08;;;;;;;63.43;30.07;;;;;;;13.10;87.02;100632.25;4249689;28;20231;-64
2023/05/25 04:59:35;;;;;;;63.60;32.90;;;;;;;12.88;87.35;100625.44;4250734;28;20606;-64
2023/05/25 05:02:01;;;;;;;61.57;31.63;;;;;;;12.82;87.83;100629.63;4259989;28;21082;-65
2023/05/25 05:04:29;;;;;;;58.97;31.93;;;;;;;12.90;87.57;100635.13;4248548;28;20230;-66
2023/05/25 05:06:55;;;;;;;63.73;30.77;;;;;;;12.86;87.92;100628.34;4257721;28;20234;-68
2023/05/25 05:09:24;;;;;;;59.30;30.97;;;;;;;12.90;87.20;100637.84;4263703;28;20223;-67
2023/05/25 05:11:50;;;;;;;54.37;28.57;;;;;;;13.03;87.09;100633.91;4254236;28;23615;-65
2023/05/25 05:14:17;;;;;;;58.50;30.47;;;;;;;12.95;87.23;100637.38;4254076;28;20235;-65
2023/05/25 05:16:44;;;;;;;66.03;30.83;;;;;;;12.99;86.92;100636.91;4263261;28;20225;-66
2023/05/25 05:19:10;;;;;;;62.27;31.33;;;;;;;12.91;87.49;100639.56;4266996;28;21724;-65
2023/05/25 05:21:37;;;;;;;57.53;29.73;;;;;;;12.93;87.16;100636.69;4245842;28;20325;-66
2023/05/25 05:24:04;;;;;;;60.57;30.80;;;;;;;12.91;87.47;100641.44;4253140;28;22364;-65
2023/05/25 05:26:31;;;;;;;54.53;29.57;;;;;;;12.98;86.88;100640.63;4251217;28;20231;-64
2023/05/25 05:29:18;;;;;;;55.93;29.27;;;;;;;12.94;87.13;100647.41;4247615;28;21291;-64
2023/05/25 05:31:45;;;;;;;58.33;30.63;;;;;;;12.90;87.55;100642.44;4269883;28;20366;-66
2023/05/25 05:34:11;;;;;;;69.73;32.57;;;;;;;12.95;87.29;100642.81;4255710;28;20239;-66
2023/05/25 05:36:38;;;;;;;63.90;31.07;;;;;;;13.00;87.23;100651.34;4252682;28;20680;-66
2023/05/25 05:39:23;;;;;;;62.40;30.37;;;;;;;13.22;86.85;100660.03;4259123;28;20227;-66
2023/05/25 05:41:49;;;;;;;58.30;29.77;;;;;;;13.13;86.66;100659.97;4254975;28;21059;-66
2023/05/25 05:44:16;;;;;;;56.20;30.53;;;;;;;13.11;86.31;100659.25;4245664;28;20238;-65
2023/05/25 05:46:42;;;;;;;54.77;28.53;;;;;;;13.30;86.05;100658.19;4253994;28;20258;-65
2023/05/25 05:49:09;;;;;;;54.77;27.20;;;;;;;13.43;84.84;100659.66;4267467;28;20245;-65
2023/05/25 05:51:36;;;;;;;58.90;29.47;;;;;;;13.29;85.55;100667.38;4259085;28;20264;-68
2023/05/25 05:54:03;;;;;;;57.60;30.03;;;;;;;13.20;86.16;100665.59;4251603;28;20336;-66
2023/05/25 05:56:30;;;;;;;63.80;29.97;;;;;;;13.12;86.37;100669.13;4261729;28;20279;-65
2023/05/25 05:58:56;;;;;;;61.33;31.47;;;;;;;13.12;86.35;100662.81;4244488;28;20926;-64
2023/05/25 06:01:24;;;;;;;60.50;31.27;;;;;;;13.26;86.32;100672.25;4246607;28;20223;-64
2023/05/25 06:03:53;;;;;;;56.77;29.80;;;;;;;13.38;85.56;100681.88;4258398;28;20596;-66
2023/05/25 06:06:20;;;;;;;57.33;29.50;;;;;;;13.35;85.67;100681.31;4260860;28;20270;-66
2023/05/25 06:08:47;;;;;;;62.33;29.90;;;;;;;13.34;85.71;100682.34;4235581;28;21506;-66
2023/05/25 06:11:13;;;;;;;49.00;26.80;;;;;;;13.57;85.22;100690.84;4258794;28;21605;-66
2023/05/25 06:13:40;;;;;;;51.37;29.10;;;;;;;13.48;84.32;100687.25;4253077;28;21615;-69
2023/05/25 06:16:06;;;;;;;52.20;28.97;;;;;;;13.20;85.17;100678.34;4232551;28;23283;-64
2023/05/25 06:18:33;;;;;;;55.53;27.53;;;;;;;13.45;84.78;100691.09;4248185;28;20253;-67
2023/05/25 06:21:00;;;;;;;59.53;28.07;;;;;;;13.53;84.23;100694.91;4245600;28;21760;-67
2023/05/25 06:23:27;;;;;;;54.20;28.13;;;;;;;13.45;84.90;100691.09;4258697;28;20311;-59
2023/05/25 06:25:54;;;;;;;53.40;27.80;;;;;;;13.46;84.48;100691.97;4252807;28;22981;-65
2023/05/25 06:28:20;;;;;;;50.80;27.67;;;;;;;13.70;84.33;100702.16;4251079;28;20246;-46
2023/05/25 06:30:47;;;;;;;48.80;27.70;;;;;;;13.63;83.60;100698.38;4258978;28;20261;-70
2023/05/25 06:33:14;;;;;;;52.67;29.50;;;;;;;13.76;83.51;100697.94;4232366;28;20238;-64
2023/05/25 06:35:40;;;;;;;49.63;28.57;;;;;;;13.66;83.70;100703.50;4236946;28;20854;-66
2023/05/25 06:38:08;;;;;;;52.57;27.07;;;;;;;13.60;83.90;100704.13;4252487;28;20599;-66
2023/05/25 06:40:34;;;;;;;51.30;27.60;;;;;;;13.65;84.30;100700.91;4239813;28;20225;-67
2023/05/25 06:43:01;;;;;;;50.70;27.50;;;;;;;13.63;84.44;100701.94;4240675;28;20231;-65
2023/05/25 06:45:27;;;;;;;53.33;28.53;;;;;;;13.73;83.90;100704.56;4241851;28;20226;-64
2023/05/25 06:47:54;;;;;;;51.33;27.40;;;;;;;13.86;83.13;100714.97;4249003;28;20276;-65
2023/05/25 06:50:21;;;;;;;50.60;27.00;;;;;;;13.79;83.75;100709.34;4255229;28;20238;-63
2023/05/25 06:52:47;;;;;;;43.97;24.60;;;;;;;13.94;82.79;100706.84;4249036;28;20658;-65
2023/05/25 06:55:14;;;;;;;49.20;25.87;;;;;;;13.94;82.59;100709.56;4254603;28;20227;-66
2023/05/25 06:57:42;;;;;;;47.23;25.60;;;;;;;14.16;81.86;100704.56;4236423;28;20241;-65
2023/05/25 07:00:12;;;;;;;50.43;26.27;;;;;;;13.93;83.31;100707.03;4251912;28;20246;-68
2023/05/25 07:02:39;;;;;;;54.93;28.50;;;;;;;13.85;83.35;100712.44;4233475;28;20297;-66
2023/05/25 07:05:06;;;;;;;53.43;28.33;;;;;;;13.97;82.84;100702.09;4245697;28;20226;-71
2023/05/25 07:07:32;;;;;;;55.80;28.73;;;;;;;13.82;83.64;100707.31;4250620;28;20255;-64
2023/05/25 07:10:01;;;;;;;52.43;27.30;;;;;;;13.96;82.79;100709.44;4251776;28;20241;-64
2023/05/25 07:12:28;;;;;;;50.53;27.83;;;;;;;13.96;82.82;100709.44;4234970;28;21819;-64
2023/05/25 07:14:56;;;;;;;54.33;27.43;;;;;;;13.97;82.75;100697.53;4246916;28;20226;-66
2023/05/25 07:17:23;;;;;;;47.07;27.53;;;;;;;13.73;83.39;100701.84;4255640;28;20412;-64
2023/05/25 07:19:49;;;;;;;49.33;27.03;;;;;;;13.96;82.55;100704.00;4253618;28;20230;-65
2023/05/25 07:22:17;;;;;;;48.30;25.83;;;;;;;13.92;82.62;100703.47;4239554;28;20239;-67
2023/05/25 07:24:45;;;;;;;45.90;26.43;;;;;;;14.12;82.04;100707.81;4256723;28;28593;-65
2023/05/25 07:27:12;;;;;;;54.40;28.10;;;;;;;14.12;81.90;100697.75;4243385;28;20233;-67
2023/05/25 07:29:39;;;;;;;47.43;26.47;;;;;;;14.22;81.85;100709.38;4246703;28;20230;-65
2023/05/25 07:32:06;;;;;;;55.23;27.97;;;;;;;14.26;81.47;100707.16;4248400;28;20285;-65
2023/05/25 07:34:35;;;;;;;45.80;25.03;;;;;;;14.47;80.91;100709.44;4235204;28;20230;-64
2023/05/25 07:37:02;;;;;;;49.83;26.83;;;;;;;14.21;81.43;100706.78;4259738;28;21784;-68
2023/05/25 07:39:29;;;;;;;49.77;26.20;;;;;;;14.32;81.25;100702.91;4238718;28;20606;-66
2023/05/25 07:41:55;;;;;;;48.63;26.80;;;;;;;14.40;80.60;100711.09;4254626;28;23588;-64
2023/05/25 07:44:22;;;;;;;45.97;25.33;;;;;;;14.38;81.11;100703.13;4251494;28;20298;-68
2023/05/25 07:46:48;;;;;;;48.73;26.90;;;;;;;14.47;81.08;100712.16;4256888;28;20231;-68
2023/05/25 07:49:15;;;;;;;43.30;25.67;;;;;;;14.59;79.75;100709.97;4233207;28;20266;-65
2023/05/25 07:51:43;;;;;;;48.27;26.53;;;;;;;14.74;79.54;100696.59;4252214;28;20234;-64
2023/05/25 07:54:10;;;;;;;41.20;24.60;;;;;;;14.82;79.52;100701.19;4238928;28;20607;-67
2023/05/25 07:56:37;;;;;;;47.70;25.77;;;;;;;15.00;78.35;100701.00;4250036;28;20291;-64
2023/05/25 07:59:05;;;;;;;42.60;25.27;;;;;;;14.96;78.86;100696.94;4246967;28;20286;-57
2023/05/25 08:01:31;;;;;;;39.97;23.03;;;;;;;15.02;78.39;100696.25;4250375;28;21483;-65
2023/05/25 08:03:58;;;;;;;43.60;24.13;;;;;;;15.20;77.34;100696.94;4253887;28;23368;-66
2023/05/25 08:06:24;;;;;;;38.67;23.40;;;;;;;15.35;77.34;100702.53;4226272;28;20239;-67
2023/05/25 08:08:51;;;;;;;40.13;23.20;;;;;;;15.55;77.33;100696.72;4254407;28;21463;-66
2023/05/25 08:11:22;;;;;;;38.10;23.20;;;;;;;15.69;75.37;100703.31;4260280;28;21694;-66
2023/05/25 08:13:48;;;;;;;44.73;25.63;;;;;;;15.61;76.01;100701.47;4247123;28;20230;-64
2023/05/25 08:16:15;;;;;;;40.00;23.10;;;;;;;15.83;75.71;100704.53;4253562;28;20304;-65
2023/05/25 08:18:45;;;;;;;40.50;23.40;;;;;;;15.89;75.13;100705.69;4248403;28;20233;-65
2023/05/25 08:21:12;;;;;;;37.30;23.03;;;;;;;15.93;74.43;100697.00;4260549;28;22340;-67
2023/05/25 08:23:41;;;;;;;35.93;22.07;;;;;;;16.45;73.63;100698.25;4265503;28;20298;-52
2023/05/25 08:26:08;;;;;;;39.37;23.00;;;;;;;16.44;73.04;100693.81;4272036;28;20368;-58
2023/05/25 08:28:55;;;;;;;39.00;23.20;;;;;;;16.60;72.12;100692.88;4256197;28;20238;-65
2023/05/25 08:31:22;;;;;;;40.00;22.30;;;;;;;16.94;71.13;100702.56;4249687;28;20252;-64
2023/05/25 08:33:48;;;;;;;34.97;21.07;;;;;;;16.99;71.49;100702.03;4249821;28;20687;-68
2023/05/25 08:36:15;;;;;;;42.00;22.80;;;;;;;16.89;70.97;100691.31;4246430;28;20234;-66
2023/05/25 08:38:42;;;;;;;34.50;21.53;;;;;;;16.92;71.71;100704.63;4258140;28;20415;-67
2023/05/25 08:41:09;;;;;;;33.80;20.90;;;;;;;17.31;70.61;100701.91;4246994;28;20221;-64
2023/05/25 08:43:36;;;;;;;33.57;20.93;;;;;;;17.43;69.68;100698.56;4237779;28;20239;-66
2023/05/25 08:46:05;;;;;;;35.77;21.37;;;;;;;17.33;69.98;100700.72;4261363;28;20285;-68
2023/05/25 08:48:36;;;;;;;29.60;19.87;;;;;;;18.33;66.75;100698.56;4251240;28;20232;-65
2023/05/25 08:51:10;;;;;;;30.87;19.93;;;;;;;18.58;65.17;100697.38;4253524;28;20235;-64
2023/05/25 08:53:39;;;;;;;38.60;20.90;;;;;;;18.42;65.41;100701.19;4268496;28;20242;-63
2023/05/25 08:56:10;;;;;;;36.83;20.83;;;;;;;18.01;66.84;100708.91;4250731;28;20925;-65
2023/05/25 08:58:45;;;;;;;31.87;20.77;;;;;;;17.58;67.66;100704.06;4253908;28;20300;-62
2023/05/25 09:01:14;;;;;;;35.20;22.10;;;;;;;17.34;69.03;100702.41;4278205;28;20439;-65
2023/05/25 09:03:42;;;;;;;33.77;21.10;;;;;;;17.51;68.57;100697.63;4256784;28;22745;-78
2023/05/25 09:06:10;;;;;;;32.53;21.97;;;;;;;17.16;69.71;100694.53;4262663;28;20223;-65
2023/05/25 09:08:38;;;;;;;32.07;20.23;;;;;;;17.24;68.93;100697.19;4258776;28;22244;-66
2023/05/25 09:11:06;;;;;;;38.27;20.93;;;;;;;17.11;69.96;100700.53;4272325;28;20243;-63
2023/05/25 09:13:34;;;;;;;35.47;20.23;;;;;;;18.16;66.18;100705.31;4259127;28;20235;-66
2023/05/25 09:16:01;;;;;;;34.60;22.17;;;;;;;17.68;68.31;100702.91;4253107;28;20659;-64
2023/05/25 09:18:27;;;;;;;38.83;22.33;;;;;;;17.92;67.89;100706.41;4287486;28;20498;-67
2023/05/25 09:20:54;;;;;;;38.67;20.93;;;;;;;17.93;67.90;100706.25;4271281;28;20230;-66
2023/05/25 09:23:22;;;;;;;33.10;21.20;;;;;;;17.87;68.45;100717.94;4272166;28;20226;-66
2023/05/25 09:25:49;;;;;;;32.50;20.97;;;;;;;17.98;67.32;100708.41;4253854;28;20609;-65
2023/05/25 09:28:20;;;;;;;35.10;20.93;;;;;;;17.98;67.57;100714.78;4281288;28;20558;-67
2023/05/25 09:30:49;;;;;;;32.67;21.03;;;;;;;17.83;67.83;100705.66;4275766;28;21157;-64
2023/05/25 09:33:16;;;;;;;32.97;20.70;;;;;;;17.50;68.36;100704.16;4262114;28;20251;-66
2023/05/25 09:35:45;;;;;;;30.70;20.80;;;;;;;17.93;67.72;100711.72;4270382;28;20245;-67
2023/05/25 09:38:14;;;;;;;33.03;20.57;;;;;;;18.37;65.50;100709.97;4280442;28;20670;-63
2023/05/25 09:40:41;;;;;;;30.60;20.00;;;;;;;18.39;65.81;100721.63;4258446;28;20374;-64
2023/05/25 09:43:08;;;;;;;31.97;19.63;;;;;;;18.35;66.95;100714.84;4273332;28;20234;-64
2023/05/25 09:45:35;;;;;;;34.73;22.50;;;;;;;18.13;66.40;100717.47;4265795;28;20810;-64
2023/05/25 09:48:04;;;;;;;33.40;20.07;;;;;;;18.35;66.03;100712.09;4253413;28;20235;-65
2023/05/25 09:50:31;;;;;;;31.83;19.83;;;;;;;18.25;66.43;100723.31;4252567;28;20244;-64
2023/05/25 09:52:59;;;;;;;29.43;20.53;;;;;;;17.92;67.71;100714.63;4241949;28;20235;-53
2023/05/25 09:55:27;;;;;;;32.67;20.33;;;;;;;17.79;68.50;100729.84;4259905;28;20231;-64
2023/05/25 09:58:06;;;;;;;30.57;18.87;;;;;;;18.23;66.77;100728.16;4258425;28;23522;-65
2023/05/25 10:00:32;;;;;;;36.67;21.97;;;;;;;17.71;69.07;100728.03;4257840;28;20255;-65
2023/05/25 10:02:59;;;;;;;34.90;19.70;;;;;;;18.25;66.99;100717.84;4252581;28;20673;-64
2023/05/25 10:05:26;;;;;;;31.27;19.53;;;;;;;18.28;67.04;100720.22;4248198;28;21134;-64
2023/05/25 10:07:53;;;;;;;37.17;21.03;;;;;;;17.85;69.44;100720.88;4282258;28;20370;-58
2023/05/25 10:10:20;;;;;;;32.07;20.60;;;;;;;18.01;68.62;100725.31;4239735;28;20234;-65
2023/05/25 10:12:50;;;;;;;32.97;19.77;;;;;;;17.80;69.46;100719.72;4272010;28;21071;-64
2023/05/25 10:15:19;;;;;;;32.60;20.97;;;;;;;17.69;70.13;100718.31;4244346;28;20227;-63
2023/05/25 10:17:51;;;;;;;31.17;20.10;;;;;;;17.81;69.29;100725.03;4265369;28;20291;-65
2023/05/25 10:20:20;;;;;;;28.57;18.57;;;;;;;17.78;69.44;100724.56;4254090;28;22833;-71
2023/05/25 10:22:53;;;;;;;32.53;19.87;;;;;;;17.72;69.41;100721.53;4228697;28;20234;-66
2023/05/25 10:25:26;;;;;;;39.60;20.33;;;;;;;17.99;68.62;100719.22;4251259;28;21086;-68
2023/05/25 10:28:01;;;;;;;37.63;20.20;;;;;;;17.80;68.84;100709.66;4236413;28;21129;-65
2023/05/25 10:30:29;;;;;;;27.97;19.40;;;;;;;17.92;68.20;100717.38;4254001;28;20229;-67
2023/05/25 10:32:56;;;;;;;36.47;20.37;;;;;;;17.74;69.31;100718.63;4261546;28;20231;-64
2023/05/25 10:35:23;;;;;;;36.73;19.47;;;;;;;17.88;68.92;100715.03;4240645;28;20248;-65
2023/05/25 10:37:51;;;;;;;34.47;17.70;;;;;;;18.11;69.17;100718.72;4245069;28;20525;-65
2023/05/25 10:40:24;;;;;;;29.87;17.87;;;;;;;18.37;67.72;100707.25;4236204;28;20622;-64
2023/05/25 10:42:50;;;;;;;32.17;18.60;;;;;;;18.60;65.89;100704.38;4248075;28;21294;-63
2023/05/25 10:45:17;;;;;;;29.00;17.23;;;;;;;18.68;66.19;100704.25;4257543;28;20241;-64
2023/05/25 10:47:49;;;;;;;27.67;16.57;;;;;;;19.36;64.17;100702.16;4253687;28;21649;-63
2023/05/25 10:50:25;;;;;;;29.27;16.43;;;;;;;19.58;62.30;100690.06;4256762;28;20305;-65
2023/05/25 10:53:21;;;;;;;28.23;16.43;;;;;;;18.76;65.73;100702.41;4254688;28;22382;-65
2023/05/25 10:55:53;;;;;;;27.90;16.30;;;;;;;18.70;66.75;100693.06;4259000;28;20245;-65
2023/05/25 10:58:21;;;;;;;29.40;18.53;;;;;;;19.03;66.48;100699.97;4255151;28;20231;-66
2023/05/25 11:01:02;;;;;;;30.33;17.17;;;;;;;19.56;64.56;100696.81;4231426;28;20645;-63
2023/05/25 11:03:57;;;;;;;28.53;15.20;;;;;;;20.11;62.75;100695.03;4248445;28;20829;-66
2023/05/25 11:06:47;;;;;;;27.67;14.07;;;;;;;20.72;60.64;100692.50;4259705;28;20298;-65
2023/05/25 11:09:27;;;;;;;37.70;18.10;;;;;;;20.88;61.18;100696.78;4246169;28;20341;-62
2023/05/25 11:12:01;;;;;;;25.80;14.57;;;;;;;20.38;61.49;100689.66;4240749;28;21152;-63
2023/05/25 11:14:29;;;;;;;27.03;15.17;;;;;;;20.71;60.54;100694.38;4270206;28;20305;-64